Time;durP1;ratioP1;P1;durP2;ratioP2;P2;SDS_P1;SDS_P2;PMS_P1;PMS_P2;Temp;Humidity;BMP_temperature;BMP_pressure;BME280_temperature;BME280_humidity;BME280_pressure;Samples;Min_cycle;Max_cycle;Signal;HPM_P1;HPM_P2
2022/01/25 00:10:39;;;;;;;66.45;38.42;;;4.30;99.90;;;;;;5092533;28;20039;-72
2022/01/25 00:24:20;;;;;;;66.95;36.95;;;4.30;99.90;;;;;;5092149;28;20067;-73
2022/01/25 00:26:59;;;;;;;69.82;37.40;;;4.20;99.90;;;;;;5092938;28;20051;-73
2022/01/25 00:30:22;;;;;;;67.13;38.47;;;4.20;99.90;;;;;;5092636;28;20024;-73
2022/01/25 00:32:16;;;;;;;69.05;40.05;;;4.20;99.90;;;;;;5081228;28;20392;-74
2022/01/25 00:34:42;;;;;;;70.60;39.55;;;4.20;99.90;;;;;;5092081;28;20032;-74
2022/01/25 00:37:08;;;;;;;67.10;37.03;;;4.20;99.90;;;;;;5091972;28;20054;-73
2022/01/25 00:39:37;;;;;;;72.63;39.40;;;4.20;99.90;;;;;;5092390;28;20047;-73
2022/01/25 00:42:12;;;;;;;71.65;39.50;;;4.20;99.90;;;;;;5091825;28;20024;-73
2022/01/25 00:44:40;;;;;;;70.88;38.72;;;4.20;99.90;;;;;;5092562;28;20560;-72
2022/01/25 00:47:07;;;;;;;73.85;39.88;;;4.20;99.90;;;;;;5092001;28;20064;-73
2022/01/25 00:49:39;;;;;;;68.85;38.90;;;4.20;99.90;;;;;;5091969;28;20020;-74
2022/01/25 00:52:20;;;;;;;68.80;38.42;;;4.20;99.90;;;;;;5092212;28;20426;-72
2022/01/25 00:54:47;;;;;;;66.50;37.80;;;4.20;99.90;;;;;;5091877;28;20056;-74
2022/01/25 00:57:12;;;;;;;68.13;36.47;;;4.20;99.90;;;;;;5091845;28;20029;-74
2022/01/25 00:59:38;;;;;;;74.50;40.75;;;4.20;99.90;;;;;;5092342;28;20024;-73
2022/01/25 01:02:07;;;;;;;76.88;40.17;;;4.20;99.90;;;;;;5095484;28;20491;-74
2022/01/25 01:04:34;;;;;;;74.15;41.20;;;4.20;99.90;;;;;;5091882;28;20138;-74
2022/01/25 01:07:06;;;;;;;72.45;39.00;;;4.30;99.90;;;;;;5091778;28;20036;-74
2022/01/25 01:09:35;;;;;;;72.60;39.53;;;4.20;99.90;;;;;;5091752;28;20361;-73
2022/01/25 01:12:07;;;;;;;73.50;37.75;;;4.20;99.90;;;;;;5094070;28;20032;-74
2022/01/25 01:14:58;;;;;;;71.85;40.15;;;4.30;99.90;;;;;;5094720;28;20081;-73
2022/01/25 01:29:03;;;;;;;73.35;40.25;;;4.30;99.90;;;;;;5075861;28;20032;-73
2022/01/25 01:36:50;;;;;;;69.70;39.20;;;4.30;99.90;;;;;;5040791;28;20086;-73
2022/01/25 01:45:29;;;;;;;77.15;40.15;;;4.30;99.90;;;;;;5074614;28;20043;-74
2022/01/25 01:47:33;;;;;;;69.55;38.25;;;4.30;99.90;;;;;;5067292;28;20525;-74
2022/01/25 01:50:01;;;;;;;69.57;38.95;;;4.30;99.90;;;;;;5074956;28;20550;-74
2022/01/25 01:52:27;;;;;;;73.70;39.80;;;4.30;99.90;;;;;;5074274;28;20020;-73
2022/01/25 01:54:53;;;;;;;70.47;39.40;;;4.30;99.90;;;;;;5074898;28;20035;-73
2022/01/25 01:57:19;;;;;;;74.20;39.78;;;4.30;99.90;;;;;;5074428;28;20024;-74
2022/01/25 01:59:44;;;;;;;71.85;37.80;;;4.30;99.90;;;;;;5074378;28;20024;-73
2022/01/25 02:02:10;;;;;;;71.38;39.78;;;4.30;99.90;;;;;;5080518;28;20016;-73
2022/01/25 02:04:35;;;;;;;77.70;41.00;;;4.30;99.90;;;;;;5103336;28;20092;-73
2022/01/25 02:07:01;;;;;;;77.45;42.95;;;4.30;99.90;;;;;;5108057;28;20075;-73
2022/01/25 02:09:27;;;;;;;76.63;41.17;;;4.30;99.90;;;;;;5115189;28;20032;-73
2022/01/25 02:11:53;;;;;;;82.30;41.47;;;4.30;99.90;;;;;;5116024;28;20440;-74
2022/01/25 02:14:18;;;;;;;74.80;40.78;;;4.30;99.90;;;;;;5114905;28;20027;-73
2022/01/25 02:24:46;;;;;;;77.63;40.95;;;4.30;99.90;;;;;;5113949;28;20045;-73
2022/01/25 02:27:12;;;;;;;75.15;39.60;;;4.30;99.90;;;;;;5115080;28;20039;-73
2022/01/25 02:29:38;;;;;;;77.68;40.33;;;4.30;99.90;;;;;;5115192;28;20081;-74
2022/01/25 02:32:08;;;;;;;74.00;38.92;;;4.40;99.90;;;;;;5115194;28;20106;-73
2022/01/25 02:34:34;;;;;;;73.38;38.88;;;4.40;99.90;;;;;;5114958;28;20115;-73
2022/01/25 02:37:06;;;;;;;73.95;39.03;;;4.40;99.90;;;;;;5115011;28;20027;-74
2022/01/25 02:39:32;;;;;;;75.53;39.95;;;4.30;99.90;;;;;;5114444;28;20485;-74
2022/01/25 02:41:58;;;;;;;73.55;38.78;;;4.30;99.90;;;;;;5113975;28;20489;-74
2022/01/25 02:44:26;;;;;;;72.82;40.40;;;4.30;99.90;;;;;;5114119;28;20066;-73
2022/01/25 02:49:27;;;;;;;69.78;37.63;;;4.30;99.90;;;;;;5114146;28;20027;-73
2022/01/25 02:51:52;;;;;;;75.40;40.92;;;4.30;99.90;;;;;;5114347;28;20463;-74
2022/01/25 02:54:18;;;;;;;79.93;43.33;;;4.30;99.90;;;;;;5114137;28;20031;-74
2022/01/25 02:56:45;;;;;;;75.13;40.13;;;4.30;99.90;;;;;;5113720;28;20019;-73
2022/01/25 02:59:12;;;;;;;83.18;41.33;;;4.30;99.90;;;;;;5113831;28;20371;-73
2022/01/25 03:01:39;;;;;;;80.90;41.80;;;4.30;99.90;;;;;;5116665;28;20196;-73
2022/01/25 03:04:08;;;;;;;77.10;39.20;;;4.40;99.90;;;;;;5119632;28;20031;-74
2022/01/25 03:06:34;;;;;;;76.25;40.70;;;4.30;99.90;;;;;;5113832;28;20103;-73
2022/01/25 03:09:01;;;;;;;79.13;40.88;;;4.30;99.90;;;;;;5113703;28;20367;-73
2022/01/25 03:11:27;;;;;;;73.28;38.45;;;4.30;99.90;;;;;;5113476;28;20020;-73
2022/01/25 03:13:55;;;;;;;75.60;40.58;;;4.30;99.90;;;;;;5116429;28;20075;-73
2022/01/25 03:19:03;;;;;;;71.70;38.22;;;4.30;99.90;;;;;;5117232;28;20096;-73
2022/01/25 03:23:58;;;;;;;67.60;37.10;;;4.30;99.90;;;;;;5112952;28;20081;-73
2022/01/25 03:26:25;;;;;;;69.72;37.97;;;4.30;99.90;;;;;;5114270;28;20023;-73
2022/01/25 03:28:52;;;;;;;79.32;40.58;;;4.40;99.90;;;;;;5114084;28;20032;-73
2022/01/25 03:31:18;;;;;;;76.22;41.25;;;4.40;99.90;;;;;;5113335;28;20020;-74
2022/01/25 03:33:45;;;;;;;73.88;39.85;;;4.40;99.90;;;;;;5113803;28;20490;-73
2022/01/25 03:36:11;;;;;;;78.28;40.72;;;4.40;99.90;;;;;;5112823;28;20116;-73
2022/01/25 03:38:41;;;;;;;75.75;40.35;;;4.40;99.90;;;;;;5112607;28;20069;-73
2022/01/25 03:41:12;;;;;;;74.20;40.75;;;4.30;99.90;;;;;;5113201;28;20027;-73
2022/01/25 03:43:38;;;;;;;72.57;38.75;;;4.30;99.90;;;;;;5113828;28;20164;-73
2022/01/25 03:46:13;;;;;;;71.47;37.97;;;4.30;99.90;;;;;;5112938;28;20023;-73
2022/01/25 03:51:23;;;;;;;76.38;40.85;;;4.30;99.90;;;;;;5112704;28;20088;-73
2022/01/25 03:53:48;;;;;;;76.97;39.78;;;4.30;99.90;;;;;;5113562;28;20111;-73
2022/01/25 03:56:14;;;;;;;73.90;41.22;;;4.30;99.90;;;;;;5113065;28;20035;-73
2022/01/25 03:58:40;;;;;;;79.75;40.30;;;4.30;99.90;;;;;;5113172;28;20023;-73
2022/01/25 04:01:05;;;;;;;79.00;41.08;;;4.30;99.90;;;;;;5113051;28;20035;-73
2022/01/25 04:03:37;;;;;;;78.22;40.72;;;4.30;99.90;;;;;;5113033;28;20125;-73
2022/01/25 04:06:04;;;;;;;75.45;40.47;;;4.30;99.90;;;;;;5112563;28;20034;-73
2022/01/25 04:08:30;;;;;;;79.38;40.42;;;4.30;99.90;;;;;;5112883;28;20055;-73
2022/01/25 04:10:55;;;;;;;80.47;41.05;;;4.30;99.90;;;;;;5113269;28;20364;-73
2022/01/25 04:13:21;;;;;;;81.70;40.25;;;4.30;99.90;;;;;;5112143;28;20093;-73
2022/01/25 04:15:48;;;;;;;74.28;39.65;;;4.20;99.90;;;;;;5112848;28;20024;-73
2022/01/25 04:21:27;;;;;;;79.22;40.70;;;4.20;99.90;;;;;;5099846;28;20065;-73
2022/01/25 04:26:37;;;;;;;75.05;39.42;;;4.20;99.90;;;;;;5112762;28;19949;-73
2022/01/25 04:29:03;;;;;;;77.20;40.20;;;4.20;99.90;;;;;;5112711;28;20028;-73
2022/01/25 04:31:28;;;;;;;90.72;41.08;;;4.20;99.90;;;;;;5112449;28;20069;-73
2022/01/25 04:53:14;;;;;;;73.47;37.85;;;4.20;99.90;;;;;;5117410;28;20061;-74
2022/01/25 04:55:59;;;;;;;72.55;38.40;;;4.20;99.90;;;;;;5117392;28;20035;-74
2022/01/25 04:58:34;;;;;;;75.97;38.95;;;4.20;99.90;;;;;;5116093;28;20466;-74
2022/01/25 05:01:00;;;;;;;74.05;39.38;;;4.20;99.90;;;;;;5116718;28;20027;-73
2022/01/25 05:03:35;;;;;;;73.05;38.50;;;4.20;99.90;;;;;;5116489;28;20019;-73
2022/01/25 05:06:09;;;;;;;74.72;38.83;;;4.20;99.90;;;;;;5120116;28;20028;-73
2022/01/25 05:08:47;;;;;;;75.45;38.47;;;4.20;99.90;;;;;;5115669;28;20043;-73
2022/01/25 05:24:20;;;;;;;73.93;38.28;;;4.30;99.90;;;;;;5115756;28;20039;-73
2022/01/25 05:26:46;;;;;;;73.75;38.83;;;4.30;99.90;;;;;;5115815;28;20016;-73
2022/01/25 05:29:12;;;;;;;75.82;39.60;;;4.30;99.90;;;;;;5116016;28;20420;-73
2022/01/25 05:31:38;;;;;;;82.43;43.88;;;4.20;99.90;;;;;;5115572;28;20047;-73
2022/01/25 05:34:07;;;;;;;76.50;40.63;;;4.30;99.90;;;;;;5116419;28;20073;-73
2022/01/25 05:36:32;;;;;;;74.60;39.13;;;4.30;99.90;;;;;;5115209;28;20464;-73
2022/01/25 05:39:01;;;;;;;78.63;39.38;;;4.30;99.90;;;;;;5116023;28;20120;-73
2022/01/25 05:41:29;;;;;;;72.75;38.35;;;4.30;99.90;;;;;;5115268;28;20443;-73
2022/01/25 05:46:31;;;;;;;80.43;41.72;;;4.30;99.90;;;;;;5115977;28;20016;-74
2022/01/25 05:48:57;;;;;;;77.95;41.17;;;4.30;99.90;;;;;;5116075;28;20035;-73
2022/01/25 05:51:23;;;;;;;73.40;37.92;;;4.30;99.90;;;;;;5115349;28;20024;-73
2022/01/25 05:53:48;;;;;;;74.55;37.78;;;4.30;99.90;;;;;;5115699;28;20028;-73
2022/01/25 05:56:14;;;;;;;70.13;37.03;;;4.30;99.90;;;;;;5115464;28;20103;-73
2022/01/25 05:58:39;;;;;;;78.15;41.03;;;4.30;99.90;;;;;;5115306;28;20028;-73
2022/01/25 06:01:05;;;;;;;76.30;38.78;;;4.30;99.90;;;;;;5115116;28;20105;-73
2022/01/25 06:03:30;;;;;;;76.10;40.05;;;4.30;99.90;;;;;;5115498;28;20046;-72
2022/01/25 06:05:56;;;;;;;76.40;39.28;;;4.30;99.90;;;;;;5114948;28;20048;-72
2022/01/25 06:08:21;;;;;;;75.38;38.22;;;4.30;99.90;;;;;;5114875;28;20047;-72
2022/01/25 06:10:47;;;;;;;73.78;39.63;;;4.30;99.90;;;;;;5115506;28;20031;-72
2022/01/25 06:13:13;;;;;;;74.15;36.67;;;4.30;99.90;;;;;;5114498;28;20413;-72
2022/01/25 06:15:38;;;;;;;80.13;41.20;;;4.30;99.90;;;;;;5115354;28;20059;-73
2022/01/25 06:18:04;;;;;;;73.15;39.33;;;4.20;99.90;;;;;;5115532;28;20459;-74
2022/01/25 06:20:29;;;;;;;68.68;36.85;;;4.30;99.90;;;;;;5114796;28;20054;-73
2022/01/25 06:22:56;;;;;;;78.18;39.70;;;4.20;99.90;;;;;;5115037;28;20037;-72
2022/01/25 06:25:21;;;;;;;71.88;37.17;;;4.20;99.90;;;;;;5115035;28;20573;-73
2022/01/25 06:27:47;;;;;;;77.88;38.28;;;4.20;99.90;;;;;;5114991;28;20059;-75
2022/01/25 06:30:17;;;;;;;80.80;38.08;;;4.30;99.90;;;;;;5115030;28;20031;-75
2022/01/25 06:32:45;;;;;;;71.93;38.88;;;4.20;99.90;;;;;;5114431;28;20071;-73
2022/01/25 06:35:11;;;;;;;73.90;38.80;;;4.20;99.90;;;;;;5114691;28;20039;-73
2022/01/25 06:37:37;;;;;;;78.43;40.20;;;4.30;99.90;;;;;;5115058;28;20463;-73
2022/01/25 06:40:07;;;;;;;72.85;39.03;;;4.20;99.90;;;;;;5114352;28;20076;-74
2022/01/25 06:42:34;;;;;;;69.65;37.53;;;4.20;99.90;;;;;;5115064;28;20023;-73
2022/01/25 06:45:10;;;;;;;74.30;39.10;;;4.20;99.90;;;;;;5114842;28;20410;-73
2022/01/25 06:47:36;;;;;;;72.35;38.47;;;4.20;99.90;;;;;;5095692;28;20119;-74
2022/01/25 06:50:08;;;;;;;75.57;39.08;;;4.20;99.90;;;;;;5074148;28;20111;-74
2022/01/25 06:52:37;;;;;;;70.57;37.42;;;4.20;99.90;;;;;;5075662;28;20037;-73
2022/01/25 06:55:07;;;;;;;69.13;36.35;;;4.20;99.90;;;;;;5072678;28;20037;-73
2022/01/25 06:57:32;;;;;;;66.88;36.60;;;4.20;99.90;;;;;;5072960;28;20036;-72
2022/01/25 07:00:03;;;;;;;68.70;35.00;;;4.20;99.90;;;;;;5072520;28;20029;-73
2022/01/25 07:02:29;;;;;;;71.97;38.13;;;4.20;99.90;;;;;;5071946;28;20082;-74
2022/01/25 07:04:54;;;;;;;76.13;39.15;;;4.20;99.90;;;;;;5073786;28;20032;-73
2022/01/25 07:07:20;;;;;;;74.85;39.25;;;4.30;99.90;;;;;;5075378;28;20381;-73
2022/01/25 07:09:45;;;;;;;75.97;39.00;;;4.30;99.90;;;;;;5072859;28;20423;-72
2022/01/25 07:12:11;;;;;;;72.55;37.80;;;4.20;99.90;;;;;;5077413;28;20099;-74
2022/01/25 07:14:36;;;;;;;73.68;38.85;;;4.30;99.90;;;;;;5073253;28;20104;-74
2022/01/25 07:17:02;;;;;;;73.90;36.80;;;4.30;99.90;;;;;;5073941;28;20082;-73
2022/01/25 07:19:28;;;;;;;77.75;38.50;;;4.30;99.90;;;;;;5076635;28;20020;-72
2022/01/25 07:21:54;;;;;;;70.75;37.13;;;4.30;99.90;;;;;;5082628;28;20028;-73
2022/01/25 07:24:20;;;;;;;81.40;39.63;;;4.30;99.90;;;;;;5089855;28;20115;-73
2022/01/25 07:26:47;;;;;;;91.60;42.90;;;4.30;99.90;;;;;;5092742;28;20127;-73
2022/01/25 07:29:13;;;;;;;88.63;41.58;;;4.30;99.90;;;;;;5090179;28;20032;-74
2022/01/25 07:31:38;;;;;;;76.47;40.47;;;4.30;99.90;;;;;;5093592;28;20105;-73
2022/01/25 07:34:04;;;;;;;77.75;40.60;;;4.30;99.90;;;;;;5092295;28;20059;-72
2022/01/25 07:36:30;;;;;;;77.78;39.75;;;4.30;99.90;;;;;;5092366;28;20028;-73
2022/01/25 07:38:55;;;;;;;75.75;38.55;;;4.30;99.90;;;;;;5081795;28;20326;-73
2022/01/25 07:41:21;;;;;;;76.75;38.28;;;4.30;99.90;;;;;;5071940;28;20017;-72
2022/01/25 07:43:47;;;;;;;73.60;38.03;;;4.30;99.90;;;;;;5073752;28;20499;-73
2022/01/25 07:46:15;;;;;;;76.00;36.03;;;4.30;99.90;;;;;;5093006;28;20024;-73
2022/01/25 07:48:41;;;;;;;75.95;38.53;;;4.30;99.90;;;;;;5092840;28;20112;-73
2022/01/25 07:51:06;;;;;;;77.25;39.25;;;4.40;99.90;;;;;;5091364;28;20062;-73
2022/01/25 07:53:32;;;;;;;71.47;37.83;;;4.40;99.90;;;;;;5089410;28;20028;-73
2022/01/25 07:55:58;;;;;;;73.30;36.00;;;4.40;99.90;;;;;;5092090;28;20426;-74
2022/01/25 07:58:23;;;;;;;78.38;38.85;;;4.30;99.90;;;;;;5089477;28;20032;-73
2022/01/25 08:00:49;;;;;;;82.38;41.13;;;4.30;99.90;;;;;;5092555;28;20028;-73
2022/01/25 08:03:18;;;;;;;74.38;37.65;;;4.30;99.90;;;;;;5092231;28;20054;-73
2022/01/25 08:05:45;;;;;;;67.80;35.88;;;4.30;99.90;;;;;;5092517;28;20031;-75
2022/01/25 08:08:11;;;;;;;68.85;36.22;;;4.30;99.90;;;;;;5091504;28;20066;-73
2022/01/25 08:10:37;;;;;;;76.47;38.58;;;4.30;99.90;;;;;;5092676;28;20031;-74
2022/01/25 08:13:03;;;;;;;76.30;38.63;;;4.40;99.90;;;;;;5090884;28;20483;-73
2022/01/25 08:15:29;;;;;;;78.30;39.53;;;4.40;99.90;;;;;;5090390;28;20020;-74
2022/01/25 08:17:55;;;;;;;83.80;41.20;;;4.40;99.90;;;;;;5091830;28;20028;-74
2022/01/25 08:20:20;;;;;;;84.75;42.80;;;4.40;99.90;;;;;;5081448;28;20376;-76
2022/01/25 08:22:46;;;;;;;86.90;44.03;;;4.40;99.90;;;;;;5086540;28;20031;-76
2022/01/25 08:25:13;;;;;;;87.05;41.83;;;4.40;99.90;;;;;;5091627;28;20047;-74
2022/01/25 08:27:39;;;;;;;82.13;40.92;;;4.40;99.90;;;;;;5087105;28;20109;-76
2022/01/25 08:30:05;;;;;;;87.68;42.65;;;4.40;99.90;;;;;;5091684;28;20058;-76
2022/01/25 08:32:31;;;;;;;89.75;43.65;;;4.40;99.90;;;;;;5087508;28;20021;-75
2022/01/25 08:34:58;;;;;;;94.35;45.95;;;4.50;99.90;;;;;;5080991;28;20034;-74
2022/01/25 08:37:23;;;;;;;89.68;42.63;;;4.50;99.90;;;;;;5092396;28;20099;-74
2022/01/25 08:39:49;;;;;;;91.32;43.92;;;4.50;99.90;;;;;;5080173;28;20107;-74
2022/01/25 08:42:15;;;;;;;98.20;45.20;;;4.50;99.90;;;;;;5071489;28;20021;-75
2022/01/25 08:44:40;;;;;;;87.55;42.33;;;4.50;99.90;;;;;;5071600;28;20036;-74
2022/01/25 08:47:07;;;;;;;93.13;45.13;;;4.50;99.90;;;;;;5071342;28;20056;-75
2022/01/25 08:49:34;;;;;;;82.07;41.05;;;4.50;99.90;;;;;;5089086;28;20048;-76
2022/01/25 08:51:59;;;;;;;83.18;41.00;;;4.60;99.90;;;;;;5092365;28;20494;-75
2022/01/25 08:54:25;;;;;;;86.57;43.35;;;4.60;99.90;;;;;;5092076;28;20064;-76
2022/01/25 08:56:52;;;;;;;88.15;43.83;;;4.60;99.90;;;;;;5092686;28;20031;-74
2022/01/25 08:59:20;;;;;;;92.38;43.75;;;4.60;99.90;;;;;;5092446;28;20024;-75
2022/01/25 09:01:49;;;;;;;87.15;43.28;;;4.70;99.90;;;;;;5091714;28;20051;-75
2022/01/25 09:04:14;;;;;;;84.47;41.83;;;4.70;99.90;;;;;;5091572;28;20150;-75
2022/01/25 09:06:43;;;;;;;95.30;46.22;;;4.70;99.90;;;;;;5094978;28;20053;-75
2022/01/25 09:09:10;;;;;;;89.53;45.25;;;4.70;99.90;;;;;;5095227;28;20125;-75
2022/01/25 09:11:37;;;;;;;89.32;43.42;;;4.70;99.90;;;;;;5078635;28;20519;-74
2022/01/25 09:14:03;;;;;;;87.38;41.92;;;4.70;99.90;;;;;;5071423;28;20112;-74
2022/01/25 09:16:29;;;;;;;88.07;43.22;;;4.70;99.90;;;;;;5073225;28;20048;-74
2022/01/25 09:18:54;;;;;;;93.43;46.53;;;4.80;99.90;;;;;;5073167;28;20060;-74
2022/01/25 09:21:20;;;;;;;84.88;42.35;;;4.80;99.90;;;;;;5075741;28;20045;-74
2022/01/25 09:23:46;;;;;;;90.45;41.80;;;4.80;99.90;;;;;;5092618;28;20084;-73
2022/01/25 09:26:12;;;;;;;89.20;44.55;;;4.80;99.90;;;;;;5089508;28;20031;-73
2022/01/25 09:28:38;;;;;;;85.88;42.03;;;4.80;99.90;;;;;;5089449;28;20438;-73
2022/01/25 09:31:04;;;;;;;93.80;46.38;;;4.80;99.90;;;;;;5089576;28;20491;-74
2022/01/25 09:33:30;;;;;;;95.05;45.35;;;4.80;99.90;;;;;;5090129;28;20031;-74
2022/01/25 09:35:56;;;;;;;98.40;47.47;;;4.80;99.90;;;;;;5092960;28;20462;-73
2022/01/25 09:38:24;;;;;;;89.55;43.17;;;4.90;99.90;;;;;;5078523;28;20050;-73
2022/01/25 09:40:50;;;;;;;97.90;47.10;;;4.90;99.90;;;;;;5087073;28;20103;-73
2022/01/25 09:43:17;;;;;;;91.35;44.30;;;4.90;99.90;;;;;;5085878;28;20542;-75
2022/01/25 09:45:43;;;;;;;91.65;43.30;;;4.90;99.90;;;;;;5082703;28;20130;-74
2022/01/25 09:48:09;;;;;;;86.53;42.22;;;4.90;99.90;;;;;;5089201;28;20024;-74
2022/01/25 09:50:39;;;;;;;92.40;43.85;;;4.90;99.90;;;;;;5093564;28;20386;-73
2022/01/25 09:53:06;;;;;;;86.88;43.72;;;4.90;99.90;;;;;;5093159;28;20027;-75
2022/01/25 09:55:35;;;;;;;92.60;43.40;;;4.90;99.90;;;;;;5088524;28;20074;-73
2022/01/25 09:58:02;;;;;;;93.82;44.22;;;4.90;99.90;;;;;;5093328;28;20448;-74
2022/01/25 10:00:31;;;;;;;95.25;47.00;;;4.90;99.90;;;;;;5087178;28;20090;-74
2022/01/25 10:03:09;;;;;;;93.30;44.10;;;4.90;99.90;;;;;;5074911;28;20082;-73
2022/01/25 10:05:41;;;;;;;95.63;44.63;;;4.90;99.90;;;;;;5073977;28;20032;-75
2022/01/25 10:08:20;;;;;;;95.18;45.67;;;5.00;99.90;;;;;;5074395;28;20047;-75
2022/01/25 10:10:59;;;;;;;96.40;46.63;;;5.10;99.90;;;;;;5083597;28;20028;-73
2022/01/25 10:13:25;;;;;;;101.78;46.75;;;5.10;99.90;;;;;;5094297;28;20024;-74
2022/01/25 10:15:52;;;;;;;100.90;46.10;;;5.20;99.90;;;;;;5094671;28;20531;-74
2022/01/25 10:18:18;;;;;;;94.53;44.58;;;5.10;99.90;;;;;;5093843;28;20052;-74
2022/01/25 10:20:47;;;;;;;94.82;45.92;;;5.10;99.90;;;;;;5094459;28;20066;-74
2022/01/25 10:23:19;;;;;;;93.80;45.55;;;5.10;99.90;;;;;;5094857;28;20051;-74
2022/01/25 10:25:47;;;;;;;111.72;50.60;;;5.10;99.90;;;;;;5093572;28;20392;-75
2022/01/25 10:28:15;;;;;;;99.07;47.63;;;5.10;99.90;;;;;;5093890;28;20027;-74
2022/01/25 10:30:52;;;;;;;99.85;46.00;;;5.10;99.90;;;;;;5087988;28;20119;-74
2022/01/25 10:33:21;;;;;;;97.03;46.65;;;5.10;99.90;;;;;;5091392;28;20069;-74
2022/01/25 10:35:48;;;;;;;98.40;45.97;;;5.10;99.90;;;;;;5092177;28;20384;-73
2022/01/25 10:38:22;;;;;;;97.35;44.35;;;5.10;99.90;;;;;;5091859;28;20471;-74
2022/01/25 10:41:13;;;;;;;101.43;50.30;;;5.10;99.90;;;;;;5091703;28;20480;-73
2022/01/25 10:43:43;;;;;;;93.93;44.00;;;5.10;99.90;;;;;;5077782;28;20085;-73
2022/01/25 10:46:24;;;;;;;94.95;45.65;;;5.10;99.90;;;;;;5090770;28;20027;-73
2022/01/25 10:48:57;;;;;;;;;;;5.40;99.90;;;;;;5089504;28;20028;-74
2022/01/25 10:51:27;;;;;;;95.93;44.63;;;5.10;99.90;;;;;;5091830;28;19908;-75
2022/01/25 10:54:20;;;;;;;98.97;45.53;;;5.20;99.90;;;;;;5091978;28;20424;-74
2022/01/25 10:56:57;;;;;;;99.10;46.28;;;5.10;99.90;;;;;;5084984;28;20028;-74
2022/01/25 10:59:32;;;;;;;105.22;49.65;;;5.20;99.90;;;;;;5092215;28;20047;-74
2022/01/25 11:02:01;;;;;;;99.10;47.05;;;5.20;99.90;;;;;;5091393;28;20020;-74
2022/01/25 11:04:33;;;;;;;99.78;47.78;;;5.20;99.90;;;;;;5091165;28;20150;-74
2022/01/25 11:07:00;;;;;;;98.70;46.92;;;5.20;99.90;;;;;;5090867;28;20073;-75
2022/01/25 11:09:34;;;;;;;101.07;48.85;;;5.20;99.90;;;;;;5094543;28;20103;-74
2022/01/25 11:12:05;;;;;;;111.70;51.65;;;5.20;99.90;;;;;;5092194;28;20024;-74
2022/01/25 11:14:50;;;;;;;102.72;48.10;;;5.20;99.90;;;;;;5091669;28;20408;-73
2022/01/25 11:17:27;;;;;;;95.50;43.78;;;5.20;99.90;;;;;;5091507;28;20031;-74
2022/01/25 11:19:54;;;;;;;102.38;47.83;;;5.20;99.90;;;;;;5091683;28;20456;-74
2022/01/25 11:22:21;;;;;;;98.82;45.90;;;5.30;99.90;;;;;;5090554;28;20032;-74
2022/01/25 11:24:54;;;;;;;106.95;48.40;;;5.20;99.90;;;;;;5093278;28;20071;-74
2022/01/25 11:27:22;;;;;;;107.72;51.00;;;5.20;99.90;;;;;;5090652;28;20043;-74
2022/01/25 11:29:51;;;;;;;100.45;47.45;;;5.20;99.90;;;;;;5092923;28;20032;-73
2022/01/25 11:32:20;;;;;;;102.80;47.42;;;5.10;99.90;;;;;;5091267;28;20051;-74
2022/01/25 11:34:48;;;;;;;99.47;47.10;;;5.10;99.90;;;;;;5091744;28;20030;-75
2022/01/25 11:37:14;;;;;;;96.07;46.60;;;5.10;99.90;;;;;;5090441;28;20035;-74
2022/01/25 11:39:43;;;;;;;97.70;46.63;;;5.20;99.90;;;;;;5091233;28;20043;-74
2022/01/25 11:42:15;;;;;;;95.03;46.10;;;5.00;99.90;;;;;;5090569;28;20016;-74
2022/01/25 11:44:57;;;;;;;92.88;44.92;;;5.20;99.90;;;;;;5091797;28;20136;-75
2022/01/25 11:47:31;;;;;;;101.55;47.33;;;5.20;99.90;;;;;;5090670;28;20393;-74
2022/01/25 11:50:00;;;;;;;100.65;49.38;;;5.20;99.90;;;;;;5090616;28;20032;-73
2022/01/25 11:52:27;;;;;;;101.70;47.08;;;5.20;99.90;;;;;;5091410;28;20028;-74
2022/01/25 11:55:13;;;;;;;100.45;46.97;;;5.30;99.90;;;;;;5087162;28;20028;-75
2022/01/25 11:57:47;;;;;;;93.70;45.53;;;5.30;99.90;;;;;;5088306;28;20081;-73
2022/01/25 12:00:13;;;;;;;96.40;46.60;;;5.30;99.90;;;;;;5088054;28;20040;-75
2022/01/25 12:02:40;;;;;;;95.13;45.40;;;5.30;99.90;;;;;;5090072;28;20030;-74
2022/01/25 12:05:08;;;;;;;100.45;47.20;;;5.30;99.90;;;;;;5077471;28;20090;-74
2022/01/25 12:07:39;;;;;;;97.20;46.63;;;5.30;99.90;;;;;;5079573;28;20418;-74
2022/01/25 12:10:33;;;;;;;93.15;43.78;;;5.30;99.90;;;;;;5081023;28;20551;-74
2022/01/25 12:13:26;;;;;;;93.97;42.67;;;5.30;99.90;;;;;;5088555;28;20416;-75
2022/01/25 12:16:24;;;;;;;89.22;43.13;;;5.30;99.90;;;;;;5089294;28;20051;-75
2022/01/25 12:19:01;;;;;;;95.65;45.80;;;5.40;99.90;;;;;;5089081;28;20111;-74
2022/01/25 12:21:45;;;;;;;91.95;45.45;;;5.30;99.90;;;;;;5088657;28;20024;-74
2022/01/25 12:24:21;;;;;;;90.28;44.80;;;5.40;99.90;;;;;;5088619;28;20036;-74
2022/01/25 12:27:18;;;;;;;86.03;42.15;;;5.40;99.90;;;;;;5088226;28;20046;-73
2022/01/25 12:29:57;;;;;;;91.18;43.83;;;5.40;99.90;;;;;;5088652;28;20028;-73
2022/01/25 12:32:47;;;;;;;93.75;45.22;;;5.40;99.90;;;;;;5087837;28;20415;-73
2022/01/25 12:35:19;;;;;;;92.78;45.80;;;5.40;99.90;;;;;;5089343;28;20024;-74
2022/01/25 12:37:46;;;;;;;95.22;43.28;;;5.40;99.90;;;;;;5089099;28;20028;-73
2022/01/25 12:40:28;;;;;;;90.97;41.35;;;5.40;99.90;;;;;;5088994;28;20509;-73
2022/01/25 12:42:59;;;;;;;90.72;41.83;;;5.40;99.90;;;;;;5091307;28;20097;-73
2022/01/25 12:45:37;;;;;;;93.13;44.00;;;5.50;99.90;;;;;;5089594;28;20113;-74
2022/01/25 12:48:08;;;;;;;96.60;44.22;;;5.40;99.90;;;;;;5089845;28;20016;-74
2022/01/25 12:50:39;;;;;;;92.22;44.15;;;5.40;99.90;;;;;;5091108;28;20020;-74
2022/01/25 12:53:07;;;;;;;93.60;45.25;;;5.40;99.90;;;;;;5090675;28;20027;-73
2022/01/25 12:55:36;;;;;;;90.80;44.45;;;5.40;99.90;;;;;;5091316;28;20499;-73
2022/01/25 12:58:03;;;;;;;96.45;45.60;;;5.40;99.90;;;;;;5091443;28;20035;-74
2022/01/25 13:00:41;;;;;;;96.80;46.58;;;5.40;99.90;;;;;;5090193;28;20048;-74
2022/01/25 13:03:29;;;;;;;91.82;44.33;;;5.40;99.90;;;;;;5090950;28;20032;-74
2022/01/25 13:06:08;;;;;;;94.75;44.85;;;5.40;99.90;;;;;;5086461;28;20415;-76
2022/01/25 13:08:45;;;;;;;89.80;43.70;;;5.40;99.90;;;;;;5083377;28;20499;-75
2022/01/25 13:11:21;;;;;;;93.03;44.28;;;5.40;99.90;;;;;;5098363;28;20032;-77
2022/01/25 13:14:14;;;;;;;91.43;45.33;;;5.40;99.90;;;;;;5075701;28;20097;-75
2022/01/25 13:16:50;;;;;;;91.45;43.58;;;5.40;99.90;;;;;;5090838;28;20036;-75
2022/01/25 13:19:28;;;;;;;95.43;43.42;;;5.40;99.90;;;;;;5098309;28;20028;-78
2022/01/25 13:22:06;;;;;;;91.15;42.90;;;5.50;99.90;;;;;;5097468;28;20046;-75
2022/01/25 13:24:36;;;;;;;87.97;42.85;;;5.40;99.90;;;;;;5102150;28;20082;-74
2022/01/25 13:27:05;;;;;;;90.45;44.05;;;5.40;99.90;;;;;;5098760;28;20027;-77
2022/01/25 13:32:31;;;;;;;91.63;44.85;;;5.40;99.90;;;;;;5095668;28;20098;-76
2022/01/25 13:35:27;;;;;;;94.82;44.95;;;5.40;99.90;;;;;;5094252;28;20491;-77
2022/01/25 13:38:08;;;;;;;90.15;42.22;;;5.40;99.90;;;;;;5095440;28;20111;-76
2022/01/25 13:40:49;;;;;;;90.22;43.72;;;5.40;99.90;;;;;;5095042;28;20028;-76
2022/01/25 13:45:53;;;;;;;89.93;45.13;;;5.40;99.90;;;;;;5095470;28;20036;-77
2022/01/25 13:48:21;;;;;;;93.25;41.83;;;5.40;99.90;;;;;;5095603;28;20020;-75
2022/01/25 13:50:53;;;;;;;93.65;44.70;;;5.40;99.90;;;;;;5097700;28;20032;-77
2022/01/25 13:53:19;;;;;;;94.10;45.67;;;5.40;99.90;;;;;;5095447;28;20024;-77
2022/01/25 13:55:50;;;;;;;87.45;43.30;;;5.40;99.90;;;;;;5095326;28;20816;-77
2022/01/25 13:58:24;;;;;;;87.00;41.25;;;5.40;99.90;;;;;;5094912;28;20032;-77
2022/01/25 14:00:50;;;;;;;96.30;43.75;;;5.40;99.90;;;;;;5095247;28;20031;-77
2022/01/25 14:03:18;;;;;;;85.88;43.05;;;5.40;99.90;;;;;;5094344;28;20043;-76
2022/01/25 14:05:44;;;;;;;94.97;42.85;;;5.30;99.90;;;;;;5094658;28;20036;-77
2022/01/25 14:08:10;;;;;;;93.03;43.88;;;5.30;99.90;;;;;;5094259;28;20050;-76
2022/01/25 14:10:35;;;;;;;89.53;42.38;;;5.30;99.90;;;;;;5094290;28;20020;-75
2022/01/25 14:24:11;;;;;;;89.22;42.35;;;5.30;99.90;;;;;;5093684;28;20043;-76
2022/01/25 14:26:37;;;;;;;87.55;42.42;;;5.20;99.90;;;;;;5094156;28;20020;-75
2022/01/25 14:29:17;;;;;;;95.55;46.13;;;5.10;99.90;;;;;;5094416;28;20035;-76
2022/01/25 14:31:46;;;;;;;97.68;50.28;;;5.20;99.90;;;;;;5094697;28;20051;-76
2022/01/25 14:34:14;;;;;;;89.63;43.80;;;5.10;99.90;;;;;;5094445;28;20070;-76
2022/01/25 14:36:46;;;;;;;85.60;41.25;;;5.10;99.90;;;;;;5094873;28;20426;-77
2022/01/25 14:39:15;;;;;;;88.40;41.08;;;5.10;99.90;;;;;;5084412;28;20036;-78
2022/01/25 14:41:42;;;;;;;84.85;39.47;;;5.10;99.90;;;;;;5074460;28;20047;-77
2022/01/25 14:44:13;;;;;;;87.60;42.08;;;5.00;99.90;;;;;;5086980;28;20040;-77
2022/01/25 14:46:50;;;;;;;87.32;41.70;;;5.10;99.90;;;;;;5089065;28;20364;-77